sensor_id;sensor_type;location;lat;lon;timestamp;P1;durP1;ratioP1;P2;durP2;ratioP2
2850;SDS011;1433;49.976;8.342;2023-07-16T00:00:10;0.90;;;0.80;;
2850;SDS011;1433;49.976;8.342;2023-07-16T00:02:39;1.00;;;0.90;;
2850;SDS011;1433;49.976;8.342;2023-07-16T00:05:06;0.90;;;0.80;;
2850;SDS011;1433;49.976;8.342;2023-07-16T00:07:32;1.37;;;1.00;;
2850;SDS011;1433;49.976;8.342;2023-07-16T00:09:58;0.97;;;0.87;;
2850;SDS011;1433;49.976;8.342;2023-07-16T00:12:25;1.00;;;0.90;;
2850;SDS011;1433;49.976;8.342;2023-07-16T00:14:51;1.00;;;0.90;;
2850;SDS011;1433;49.976;8.342;2023-07-16T00:17:17;0.90;;;0.80;;
2850;SDS011;1433;49.976;8.342;2023-07-16T00:19:43;0.90;;;0.80;;
2850;SDS011;1433;49.976;8.342;2023-07-16T00:22:14;1.07;;;0.97;;
2850;SDS011;1433;49.976;8.342;2023-07-16T00:24:37;1.00;;;0.90;;
2850;SDS011;1433;49.976;8.342;2023-07-16T00:27:04;0.90;;;0.70;;
2850;SDS011;1433;49.976;8.342;2023-07-16T00:29:31;1.23;;;1.13;;
2850;SDS011;1433;49.976;8.342;2023-07-16T00:31:57;0.90;;;0.80;;
2850;SDS011;1433;49.976;8.342;2023-07-16T00:34:23;1.27;;;1.17;;
2850;SDS011;1433;49.976;8.342;2023-07-16T00:36:50;0.90;;;0.80;;
2850;SDS011;1433;49.976;8.342;2023-07-16T00:39:16;0.90;;;0.80;;
2850;SDS011;1433;49.976;8.342;2023-07-16T00:41:42;0.93;;;0.83;;
2850;SDS011;1433;49.976;8.342;2023-07-16T00:44:08;1.20;;;1.10;;
2850;SDS011;1433;49.976;8.342;2023-07-16T00:46:34;1.27;;;1.17;;
2850;SDS011;1433;49.976;8.342;2023-07-16T00:49:01;1.00;;;0.90;;
2850;SDS011;1433;49.976;8.342;2023-07-16T00:51:28;1.00;;;0.90;;
2850;SDS011;1433;49.976;8.342;2023-07-16T00:53:56;0.90;;;0.80;;
2850;SDS011;1433;49.976;8.342;2023-07-16T00:56:22;1.00;;;0.90;;
2850;SDS011;1433;49.976;8.342;2023-07-16T00:58:48;0.90;;;0.80;;
2850;SDS011;1433;49.976;8.342;2023-07-16T01:01:14;1.00;;;0.90;;
2850;SDS011;1433;49.976;8.342;2023-07-16T01:03:40;0.90;;;0.80;;
2850;SDS011;1433;49.976;8.342;2023-07-16T01:06:14;0.90;;;0.80;;
2850;SDS011;1433;49.976;8.342;2023-07-16T01:08:53;0.90;;;0.70;;
2850;SDS011;1433;49.976;8.342;2023-07-16T01:11:17;0.90;;;0.80;;
2850;SDS011;1433;49.976;8.342;2023-07-16T01:13:44;0.90;;;0.80;;
2850;SDS011;1433;49.976;8.342;2023-07-16T01:16:24;2.60;;;0.90;;
2850;SDS011;1433;49.976;8.342;2023-07-16T01:18:51;0.90;;;0.70;;
2850;SDS011;1433;49.976;8.342;2023-07-16T01:21:18;0.90;;;0.80;;
2850;SDS011;1433;49.976;8.342;2023-07-16T01:29:06;1.57;;;1.47;;
2850;SDS011;1433;49.976;8.342;2023-07-16T01:31:31;1.10;;;1.00;;
2850;SDS011;1433;49.976;8.342;2023-07-16T01:33:58;0.90;;;0.80;;
2850;SDS011;1433;49.976;8.342;2023-07-16T01:36:25;0.90;;;0.80;;
2850;SDS011;1433;49.976;8.342;2023-07-16T01:38:53;0.90;;;0.80;;
2850;SDS011;1433;49.976;8.342;2023-07-16T01:41:20;0.90;;;0.80;;
2850;SDS011;1433;49.976;8.342;2023-07-16T01:43:46;1.27;;;1.17;;
2850;SDS011;1433;49.976;8.342;2023-07-16T01:46:12;0.90;;;0.73;;
2850;SDS011;1433;49.976;8.342;2023-07-16T01:48:39;1.00;;;0.90;;
2850;SDS011;1433;49.976;8.342;2023-07-16T01:51:05;1.00;;;0.80;;
2850;SDS011;1433;49.976;8.342;2023-07-16T01:53:31;1.70;;;1.60;;
2850;SDS011;1433;49.976;8.342;2023-07-16T01:55:57;1.90;;;1.70;;
2850;SDS011;1433;49.976;8.342;2023-07-16T01:58:24;3.33;;;1.80;;
2850;SDS011;1433;49.976;8.342;2023-07-16T02:00:50;3.43;;;2.23;;
2850;SDS011;1433;49.976;8.342;2023-07-16T02:03:16;2.00;;;1.90;;
2850;SDS011;1433;49.976;8.342;2023-07-16T02:05:43;2.00;;;1.80;;
2850;SDS011;1433;49.976;8.342;2023-07-16T02:08:09;1.93;;;1.60;;
2850;SDS011;1433;49.976;8.342;2023-07-16T02:10:36;3.60;;;2.53;;
2850;SDS011;1433;49.976;8.342;2023-07-16T02:13:02;3.13;;;1.50;;
2850;SDS011;1433;49.976;8.342;2023-07-16T02:15:28;2.17;;;1.97;;
2850;SDS011;1433;49.976;8.342;2023-07-16T02:17:55;4.70;;;2.20;;
2850;SDS011;1433;49.976;8.342;2023-07-16T02:20:21;2.23;;;1.87;;
2850;SDS011;1433;49.976;8.342;2023-07-16T02:22:47;2.13;;;1.77;;
2850;SDS011;1433;49.976;8.342;2023-07-16T02:25:14;3.03;;;1.83;;
2850;SDS011;1433;49.976;8.342;2023-07-16T02:27:40;3.43;;;2.10;;
2850;SDS011;1433;49.976;8.342;2023-07-16T02:30:06;6.60;;;1.90;;
2850;SDS011;1433;49.976;8.342;2023-07-16T02:32:33;3.00;;;2.07;;
2850;SDS011;1433;49.976;8.342;2023-07-16T02:35:01;3.40;;;2.30;;
2850;SDS011;1433;49.976;8.342;2023-07-16T02:37:28;3.80;;;2.27;;
2850;SDS011;1433;49.976;8.342;2023-07-16T02:39:56;2.90;;;1.70;;
2850;SDS011;1433;49.976;8.342;2023-07-16T02:42:22;2.47;;;2.37;;
2850;SDS011;1433;49.976;8.342;2023-07-16T02:44:50;2.40;;;2.00;;
2850;SDS011;1433;49.976;8.342;2023-07-16T02:47:16;1.80;;;1.70;;
2850;SDS011;1433;49.976;8.342;2023-07-16T02:49:42;1.90;;;1.80;;
2850;SDS011;1433;49.976;8.342;2023-07-16T02:52:08;2.00;;;1.90;;
2850;SDS011;1433;49.976;8.342;2023-07-16T02:54:35;2.10;;;1.90;;
2850;SDS011;1433;49.976;8.342;2023-07-16T02:57:02;2.87;;;2.67;;
2850;SDS011;1433;49.976;8.342;2023-07-16T02:59:29;2.00;;;1.80;;
2850;SDS011;1433;49.976;8.342;2023-07-16T03:01:55;3.43;;;2.80;;
2850;SDS011;1433;49.976;8.342;2023-07-16T03:04:21;2.40;;;2.20;;
2850;SDS011;1433;49.976;8.342;2023-07-16T03:06:47;2.37;;;2.17;;
2850;SDS011;1433;49.976;8.342;2023-07-16T03:09:14;3.87;;;2.10;;
2850;SDS011;1433;49.976;8.342;2023-07-16T03:11:40;2.90;;;2.60;;
2850;SDS011;1433;49.976;8.342;2023-07-16T03:14:06;3.63;;;2.90;;
2850;SDS011;1433;49.976;8.342;2023-07-16T03:16:33;2.97;;;2.47;;
2850;SDS011;1433;49.976;8.342;2023-07-16T03:18:59;1.80;;;1.70;;
2850;SDS011;1433;49.976;8.342;2023-07-16T03:21:25;2.30;;;2.10;;
2850;SDS011;1433;49.976;8.342;2023-07-16T03:23:51;2.50;;;2.30;;
2850;SDS011;1433;49.976;8.342;2023-07-16T03:26:17;3.67;;;1.83;;
2850;SDS011;1433;49.976;8.342;2023-07-16T03:28:43;2.83;;;2.63;;
2850;SDS011;1433;49.976;8.342;2023-07-16T03:31:10;3.20;;;2.73;;
2850;SDS011;1433;49.976;8.342;2023-07-16T03:33:37;3.90;;;2.17;;
2850;SDS011;1433;49.976;8.342;2023-07-16T03:36:03;3.50;;;2.30;;
2850;SDS011;1433;49.976;8.342;2023-07-16T03:38:30;5.47;;;2.73;;
2850;SDS011;1433;49.976;8.342;2023-07-16T03:40:56;2.83;;;2.63;;
2850;SDS011;1433;49.976;8.342;2023-07-16T03:43:23;4.73;;;2.30;;
2850;SDS011;1433;49.976;8.342;2023-07-16T03:45:50;2.50;;;2.20;;
2850;SDS011;1433;49.976;8.342;2023-07-16T03:48:16;4.43;;;3.20;;
2850;SDS011;1433;49.976;8.342;2023-07-16T03:50:42;3.23;;;2.70;;
2850;SDS011;1433;49.976;8.342;2023-07-16T03:53:09;2.73;;;2.53;;
2850;SDS011;1433;49.976;8.342;2023-07-16T03:55:35;3.03;;;2.83;;
2850;SDS011;1433;49.976;8.342;2023-07-16T03:58:02;7.47;;;2.70;;
2850;SDS011;1433;49.976;8.342;2023-07-16T04:00:29;3.43;;;2.80;;
2850;SDS011;1433;49.976;8.342;2023-07-16T04:02:55;3.60;;;2.93;;
2850;SDS011;1433;49.976;8.342;2023-07-16T04:05:21;7.27;;;3.03;;
2850;SDS011;1433;49.976;8.342;2023-07-16T04:07:49;2.93;;;2.67;;
2850;SDS011;1433;49.976;8.342;2023-07-16T04:10:15;3.70;;;3.07;;
2850;SDS011;1433;49.976;8.342;2023-07-16T04:12:41;3.40;;;2.27;;
2850;SDS011;1433;49.976;8.342;2023-07-16T04:15:08;3.10;;;2.60;;
2850;SDS011;1433;49.976;8.342;2023-07-16T04:17:37;3.40;;;2.97;;
2850;SDS011;1433;49.976;8.342;2023-07-16T04:20:03;2.80;;;2.60;;
2850;SDS011;1433;49.976;8.342;2023-07-16T04:22:37;2.70;;;2.50;;
2850;SDS011;1433;49.976;8.342;2023-07-16T04:25:01;4.17;;;2.63;;
2850;SDS011;1433;49.976;8.342;2023-07-16T04:27:28;2.60;;;2.40;;
2850;SDS011;1433;49.976;8.342;2023-07-16T04:29:54;3.83;;;2.87;;
2850;SDS011;1433;49.976;8.342;2023-07-16T04:32:20;3.27;;;2.93;;
2850;SDS011;1433;49.976;8.342;2023-07-16T04:34:46;6.20;;;2.87;;
2850;SDS011;1433;49.976;8.342;2023-07-16T04:37:12;7.27;;;3.30;;
2850;SDS011;1433;49.976;8.342;2023-07-16T04:39:38;2.90;;;2.70;;
2850;SDS011;1433;49.976;8.342;2023-07-16T04:42:04;2.20;;;2.00;;
2850;SDS011;1433;49.976;8.342;2023-07-16T04:44:31;5.47;;;3.50;;
2850;SDS011;1433;49.976;8.342;2023-07-16T04:46:57;9.83;;;3.00;;
2850;SDS011;1433;49.976;8.342;2023-07-16T04:49:23;4.80;;;2.77;;
2850;SDS011;1433;49.976;8.342;2023-07-16T04:51:49;2.53;;;2.33;;
2850;SDS011;1433;49.976;8.342;2023-07-16T04:54:15;3.63;;;3.40;;
2850;SDS011;1433;49.976;8.342;2023-07-16T04:56:41;4.43;;;3.50;;
2850;SDS011;1433;49.976;8.342;2023-07-16T04:59:07;3.10;;;2.80;;
2850;SDS011;1433;49.976;8.342;2023-07-16T05:01:33;2.73;;;2.53;;
2850;SDS011;1433;49.976;8.342;2023-07-16T05:04:00;3.97;;;2.43;;
2850;SDS011;1433;49.976;8.342;2023-07-16T05:06:26;3.90;;;2.50;;
2850;SDS011;1433;49.976;8.342;2023-07-16T05:08:52;2.90;;;2.23;;
2850;SDS011;1433;49.976;8.342;2023-07-16T05:11:18;2.13;;;1.70;;
2850;SDS011;1433;49.976;8.342;2023-07-16T05:13:44;5.07;;;2.70;;
2850;SDS011;1433;49.976;8.342;2023-07-16T05:16:12;2.27;;;2.00;;
2850;SDS011;1433;49.976;8.342;2023-07-16T05:18:38;5.40;;;2.77;;
2850;SDS011;1433;49.976;8.342;2023-07-16T05:21:04;4.90;;;2.50;;
2850;SDS011;1433;49.976;8.342;2023-07-16T05:23:30;4.20;;;3.60;;
2850;SDS011;1433;49.976;8.342;2023-07-16T05:25:56;2.77;;;2.30;;
2850;SDS011;1433;49.976;8.342;2023-07-16T05:28:22;3.97;;;2.50;;
2850;SDS011;1433;49.976;8.342;2023-07-16T05:30:56;4.10;;;2.80;;
2850;SDS011;1433;49.976;8.342;2023-07-16T05:33:21;2.93;;;2.73;;
2850;SDS011;1433;49.976;8.342;2023-07-16T05:35:48;2.83;;;2.07;;
2850;SDS011;1433;49.976;8.342;2023-07-16T05:38:21;3.90;;;2.63;;
2850;SDS011;1433;49.976;8.342;2023-07-16T05:40:47;5.03;;;2.77;;
2850;SDS011;1433;49.976;8.342;2023-07-16T05:43:13;2.70;;;2.50;;
2850;SDS011;1433;49.976;8.342;2023-07-16T05:45:40;4.87;;;2.37;;
2850;SDS011;1433;49.976;8.342;2023-07-16T05:48:06;2.97;;;2.77;;
2850;SDS011;1433;49.976;8.342;2023-07-16T05:50:32;4.20;;;2.17;;
2850;SDS011;1433;49.976;8.342;2023-07-16T05:52:59;7.17;;;2.80;;
2850;SDS011;1433;49.976;8.342;2023-07-16T05:55:25;3.23;;;2.37;;
2850;SDS011;1433;49.976;8.342;2023-07-16T05:57:51;3.00;;;2.13;;
2850;SDS011;1433;49.976;8.342;2023-07-16T06:00:17;2.53;;;2.07;;
2850;SDS011;1433;49.976;8.342;2023-07-16T06:02:43;4.10;;;2.43;;
2850;SDS011;1433;49.976;8.342;2023-07-16T06:05:09;6.47;;;3.17;;
2850;SDS011;1433;49.976;8.342;2023-07-16T06:07:36;2.40;;;2.17;;
2850;SDS011;1433;49.976;8.342;2023-07-16T06:10:02;4.50;;;2.40;;
2850;SDS011;1433;49.976;8.342;2023-07-16T06:12:28;2.60;;;2.40;;
2850;SDS011;1433;49.976;8.342;2023-07-16T06:14:54;5.87;;;2.73;;
2850;SDS011;1433;49.976;8.342;2023-07-16T06:17:20;3.97;;;2.40;;
2850;SDS011;1433;49.976;8.342;2023-07-16T06:19:46;4.00;;;2.90;;
2850;SDS011;1433;49.976;8.342;2023-07-16T06:22:14;4.50;;;2.23;;
2850;SDS011;1433;49.976;8.342;2023-07-16T06:24:41;5.10;;;2.30;;
2850;SDS011;1433;49.976;8.342;2023-07-16T06:27:07;2.60;;;2.40;;
2850;SDS011;1433;49.976;8.342;2023-07-16T06:29:33;3.33;;;2.90;;
2850;SDS011;1433;49.976;8.342;2023-07-16T06:31:59;2.83;;;2.27;;
2850;SDS011;1433;49.976;8.342;2023-07-16T06:34:25;4.10;;;2.77;;
2850;SDS011;1433;49.976;8.342;2023-07-16T06:36:51;2.80;;;2.47;;
2850;SDS011;1433;49.976;8.342;2023-07-16T06:39:18;2.00;;;1.90;;
2850;SDS011;1433;49.976;8.342;2023-07-16T06:41:44;2.50;;;2.30;;
2850;SDS011;1433;49.976;8.342;2023-07-16T06:44:10;3.20;;;2.63;;
2850;SDS011;1433;49.976;8.342;2023-07-16T06:46:36;3.30;;;2.40;;
2850;SDS011;1433;49.976;8.342;2023-07-16T06:49:02;5.70;;;3.17;;
2850;SDS011;1433;49.976;8.342;2023-07-16T06:51:30;2.87;;;2.37;;
2850;SDS011;1433;49.976;8.342;2023-07-16T06:53:58;3.83;;;2.27;;
2850;SDS011;1433;49.976;8.342;2023-07-16T06:56:25;3.63;;;3.30;;
2850;SDS011;1433;49.976;8.342;2023-07-16T06:58:51;3.27;;;2.67;;
2850;SDS011;1433;49.976;8.342;2023-07-16T07:01:17;5.07;;;2.57;;
2850;SDS011;1433;49.976;8.342;2023-07-16T07:03:44;2.50;;;2.30;;
2850;SDS011;1433;49.976;8.342;2023-07-16T07:06:10;7.83;;;2.93;;
2850;SDS011;1433;49.976;8.342;2023-07-16T07:08:36;2.10;;;1.90;;
2850;SDS011;1433;49.976;8.342;2023-07-16T07:11:03;3.43;;;2.80;;
2850;SDS011;1433;49.976;8.342;2023-07-16T07:13:30;3.97;;;2.60;;
2850;SDS011;1433;49.976;8.342;2023-07-16T07:15:56;7.27;;;3.07;;
2850;SDS011;1433;49.976;8.342;2023-07-16T07:18:22;4.30;;;2.10;;
2850;SDS011;1433;49.976;8.342;2023-07-16T07:20:48;5.60;;;2.70;;
2850;SDS011;1433;49.976;8.342;2023-07-16T07:23:19;3.87;;;2.53;;
2850;SDS011;1433;49.976;8.342;2023-07-16T07:25:43;4.50;;;2.53;;
2850;SDS011;1433;49.976;8.342;2023-07-16T07:28:09;2.43;;;2.10;;
2850;SDS011;1433;49.976;8.342;2023-07-16T07:30:35;3.13;;;2.93;;
2850;SDS011;1433;49.976;8.342;2023-07-16T07:33:02;3.80;;;3.27;;
2850;SDS011;1433;49.976;8.342;2023-07-16T07:35:29;3.90;;;2.60;;
2850;SDS011;1433;49.976;8.342;2023-07-16T07:37:55;4.37;;;2.60;;
2850;SDS011;1433;49.976;8.342;2023-07-16T07:40:21;3.83;;;2.40;;
2850;SDS011;1433;49.976;8.342;2023-07-16T07:42:47;2.80;;;2.20;;
2850;SDS011;1433;49.976;8.342;2023-07-16T07:45:14;3.30;;;2.17;;
2850;SDS011;1433;49.976;8.342;2023-07-16T07:47:41;8.23;;;2.67;;
2850;SDS011;1433;49.976;8.342;2023-07-16T07:50:07;2.73;;;2.53;;
2850;SDS011;1433;49.976;8.342;2023-07-16T07:52:34;4.23;;;3.10;;
2850;SDS011;1433;49.976;8.342;2023-07-16T07:55:00;2.67;;;2.47;;
2850;SDS011;1433;49.976;8.342;2023-07-16T07:57:26;3.53;;;2.53;;
2850;SDS011;1433;49.976;8.342;2023-07-16T07:59:53;3.00;;;2.60;;
2850;SDS011;1433;49.976;8.342;2023-07-16T08:02:21;3.23;;;2.67;;
2850;SDS011;1433;49.976;8.342;2023-07-16T08:04:50;3.47;;;3.17;;
2850;SDS011;1433;49.976;8.342;2023-07-16T08:07:20;6.33;;;2.60;;
2850;SDS011;1433;49.976;8.342;2023-07-16T08:09:47;2.33;;;2.13;;
2850;SDS011;1433;49.976;8.342;2023-07-16T08:12:14;4.70;;;2.33;;
2850;SDS011;1433;49.976;8.342;2023-07-16T08:14:40;2.67;;;1.90;;
2850;SDS011;1433;49.976;8.342;2023-07-16T08:17:07;2.30;;;2.10;;
2850;SDS011;1433;49.976;8.342;2023-07-16T08:19:33;2.93;;;2.70;;
2850;SDS011;1433;49.976;8.342;2023-07-16T08:22:00;3.23;;;2.37;;
2850;SDS011;1433;49.976;8.342;2023-07-16T08:24:26;9.40;;;3.03;;
2850;SDS011;1433;49.976;8.342;2023-07-16T08:26:52;3.73;;;2.07;;
2850;SDS011;1433;49.976;8.342;2023-07-16T08:29:18;3.23;;;2.23;;
2850;SDS011;1433;49.976;8.342;2023-07-16T08:31:45;5.63;;;2.50;;
2850;SDS011;1433;49.976;8.342;2023-07-16T08:34:11;3.13;;;2.20;;
2850;SDS011;1433;49.976;8.342;2023-07-16T08:36:37;2.70;;;2.20;;
2850;SDS011;1433;49.976;8.342;2023-07-16T08:39:03;3.77;;;2.40;;
2850;SDS011;1433;49.976;8.342;2023-07-16T08:41:30;4.63;;;2.80;;
2850;SDS011;1433;49.976;8.342;2023-07-16T08:43:56;2.90;;;1.93;;
2850;SDS011;1433;49.976;8.342;2023-07-16T08:46:23;2.37;;;2.17;;
2850;SDS011;1433;49.976;8.342;2023-07-16T08:48:49;4.80;;;2.43;;
2850;SDS011;1433;49.976;8.342;2023-07-16T08:51:16;2.70;;;2.50;;
2850;SDS011;1433;49.976;8.342;2023-07-16T08:53:43;1.90;;;1.67;;
2850;SDS011;1433;49.976;8.342;2023-07-16T08:56:10;2.60;;;2.40;;
2850;SDS011;1433;49.976;8.342;2023-07-16T08:58:36;4.50;;;2.60;;
2850;SDS011;1433;49.976;8.342;2023-07-16T09:01:04;4.67;;;2.87;;
2850;SDS011;1433;49.976;8.342;2023-07-16T09:03:31;5.33;;;3.47;;
2850;SDS011;1433;49.976;8.342;2023-07-16T09:05:57;6.00;;;2.40;;
2850;SDS011;1433;49.976;8.342;2023-07-16T09:08:23;6.40;;;1.93;;
2850;SDS011;1433;49.976;8.342;2023-07-16T09:10:55;4.53;;;3.13;;
2850;SDS011;1433;49.976;8.342;2023-07-16T09:13:22;3.33;;;1.97;;
2850;SDS011;1433;49.976;8.342;2023-07-16T09:15:51;3.53;;;2.30;;
2850;SDS011;1433;49.976;8.342;2023-07-16T09:18:27;5.13;;;2.33;;
2850;SDS011;1433;49.976;8.342;2023-07-16T09:20:56;3.50;;;2.90;;
2850;SDS011;1433;49.976;8.342;2023-07-16T09:23:25;2.87;;;2.67;;
2850;SDS011;1433;49.976;8.342;2023-07-16T09:25:55;2.43;;;2.23;;
2850;SDS011;1433;49.976;8.342;2023-07-16T09:28:21;3.47;;;2.17;;
2850;SDS011;1433;49.976;8.342;2023-07-16T09:30:48;2.83;;;1.73;;
2850;SDS011;1433;49.976;8.342;2023-07-16T09:33:18;2.13;;;1.83;;
2850;SDS011;1433;49.976;8.342;2023-07-16T09:35:49;2.90;;;2.50;;
2850;SDS011;1433;49.976;8.342;2023-07-16T09:38:16;4.97;;;2.37;;
2850;SDS011;1433;49.976;8.342;2023-07-16T09:40:43;4.20;;;2.50;;
2850;SDS011;1433;49.976;8.342;2023-07-16T09:43:11;6.67;;;2.30;;
2850;SDS011;1433;49.976;8.342;2023-07-16T09:45:38;2.70;;;2.50;;
2850;SDS011;1433;49.976;8.342;2023-07-16T09:48:05;4.17;;;3.40;;
2850;SDS011;1433;49.976;8.342;2023-07-16T09:50:32;2.23;;;1.93;;
2850;SDS011;1433;49.976;8.342;2023-07-16T09:52:59;2.17;;;1.97;;
2850;SDS011;1433;49.976;8.342;2023-07-16T09:55:26;3.00;;;2.37;;
2850;SDS011;1433;49.976;8.342;2023-07-16T09:57:54;2.80;;;2.23;;
2850;SDS011;1433;49.976;8.342;2023-07-16T10:00:22;2.00;;;1.80;;
2850;SDS011;1433;49.976;8.342;2023-07-16T10:02:50;3.67;;;1.93;;
2850;SDS011;1433;49.976;8.342;2023-07-16T10:05:19;3.63;;;1.90;;
2850;SDS011;1433;49.976;8.342;2023-07-16T10:07:57;3.57;;;3.27;;
2850;SDS011;1433;49.976;8.342;2023-07-16T10:10:37;3.40;;;2.60;;
2850;SDS011;1433;49.976;8.342;2023-07-16T10:12:55;4.60;;;2.40;;
2850;SDS011;1433;49.976;8.342;2023-07-16T10:15:26;3.33;;;2.47;;
2850;SDS011;1433;49.976;8.342;2023-07-16T10:17:53;2.67;;;2.47;;
2850;SDS011;1433;49.976;8.342;2023-07-16T10:20:31;4.90;;;2.87;;
2850;SDS011;1433;49.976;8.342;2023-07-16T10:22:59;2.23;;;2.03;;
2850;SDS011;1433;49.976;8.342;2023-07-16T10:25:37;2.53;;;2.13;;
2850;SDS011;1433;49.976;8.342;2023-07-16T10:28:03;5.30;;;2.17;;
2850;SDS011;1433;49.976;8.342;2023-07-16T10:30:30;3.40;;;3.10;;
2850;SDS011;1433;49.976;8.342;2023-07-16T10:32:58;3.27;;;2.83;;
2850;SDS011;1433;49.976;8.342;2023-07-16T10:35:27;4.90;;;4.20;;
2850;SDS011;1433;49.976;8.342;2023-07-16T10:37:54;4.90;;;2.83;;
2850;SDS011;1433;49.976;8.342;2023-07-16T10:40:20;2.13;;;1.93;;
2850;SDS011;1433;49.976;8.342;2023-07-16T10:42:46;3.00;;;2.40;;
2850;SDS011;1433;49.976;8.342;2023-07-16T10:45:12;2.90;;;2.50;;
2850;SDS011;1433;49.976;8.342;2023-07-16T10:47:50;4.10;;;2.00;;
2850;SDS011;1433;49.976;8.342;2023-07-16T10:50:20;3.57;;;2.40;;
2850;SDS011;1433;49.976;8.342;2023-07-16T10:52:56;3.50;;;2.23;;
2850;SDS011;1433;49.976;8.342;2023-07-16T10:55:23;2.17;;;2.00;;
2850;SDS011;1433;49.976;8.342;2023-07-16T10:57:51;4.30;;;2.40;;
2850;SDS011;1433;49.976;8.342;2023-07-16T11:00:18;4.40;;;2.10;;
2850;SDS011;1433;49.976;8.342;2023-07-16T11:02:44;3.63;;;1.93;;
2850;SDS011;1433;49.976;8.342;2023-07-16T11:05:12;3.03;;;2.80;;
2850;SDS011;1433;49.976;8.342;2023-07-16T11:07:46;2.27;;;2.07;;
2850;SDS011;1433;49.976;8.342;2023-07-16T11:10:16;2.17;;;1.80;;
2850;SDS011;1433;49.976;8.342;2023-07-16T11:12:43;2.07;;;1.80;;
2850;SDS011;1433;49.976;8.342;2023-07-16T11:15:10;2.07;;;1.50;;
2850;SDS011;1433;49.976;8.342;2023-07-16T11:17:37;2.17;;;1.97;;
2850;SDS011;1433;49.976;8.342;2023-07-16T11:20:07;4.93;;;2.40;;
2850;SDS011;1433;49.976;8.342;2023-07-16T11:22:36;1.97;;;1.77;;
2850;SDS011;1433;49.976;8.342;2023-07-16T11:25:03;2.23;;;2.03;;
2850;SDS011;1433;49.976;8.342;2023-07-16T11:27:30;3.53;;;1.90;;
2850;SDS011;1433;49.976;8.342;2023-07-16T11:29:58;2.07;;;1.73;;
2850;SDS011;1433;49.976;8.342;2023-07-16T11:32:26;2.60;;;2.27;;
2850;SDS011;1433;49.976;8.342;2023-07-16T11:35:05;3.37;;;2.17;;
2850;SDS011;1433;49.976;8.342;2023-07-16T11:37:30;2.00;;;1.90;;
2850;SDS011;1433;49.976;8.342;2023-07-16T11:39:59;4.53;;;1.90;;
2850;SDS011;1433;49.976;8.342;2023-07-16T11:42:29;4.93;;;2.00;;
2850;SDS011;1433;49.976;8.342;2023-07-16T11:44:59;4.73;;;2.13;;
2850;SDS011;1433;49.976;8.342;2023-07-16T11:47:26;4.20;;;2.20;;
2850;SDS011;1433;49.976;8.342;2023-07-16T11:49:53;4.13;;;2.00;;
2850;SDS011;1433;49.976;8.342;2023-07-16T11:52:20;2.67;;;2.47;;
2850;SDS011;1433;49.976;8.342;2023-07-16T11:54:48;4.60;;;3.73;;
2850;SDS011;1433;49.976;8.342;2023-07-16T11:57:15;2.33;;;1.87;;
2850;SDS011;1433;49.976;8.342;2023-07-16T11:59:42;2.90;;;2.20;;
2850;SDS011;1433;49.976;8.342;2023-07-16T12:02:08;3.10;;;2.60;;
2850;SDS011;1433;49.976;8.342;2023-07-16T12:04:35;2.77;;;2.50;;
2850;SDS011;1433;49.976;8.342;2023-07-16T12:07:01;3.70;;;3.40;;
2850;SDS011;1433;49.976;8.342;2023-07-16T12:09:27;5.53;;;2.70;;
2850;SDS011;1433;49.976;8.342;2023-07-16T12:11:53;3.07;;;2.37;;
2850;SDS011;1433;49.976;8.342;2023-07-16T12:14:19;5.10;;;2.30;;
2850;SDS011;1433;49.976;8.342;2023-07-16T12:16:46;2.77;;;2.57;;
2850;SDS011;1433;49.976;8.342;2023-07-16T12:19:12;5.90;;;2.50;;
2850;SDS011;1433;49.976;8.342;2023-07-16T12:21:40;5.33;;;3.03;;
2850;SDS011;1433;49.976;8.342;2023-07-16T12:24:06;3.20;;;1.97;;
2850;SDS011;1433;49.976;8.342;2023-07-16T12:26:32;4.03;;;3.73;;
2850;SDS011;1433;49.976;8.342;2023-07-16T12:28:59;4.73;;;2.47;;
2850;SDS011;1433;49.976;8.342;2023-07-16T12:31:28;5.87;;;3.17;;
2850;SDS011;1433;49.976;8.342;2023-07-16T12:33:55;3.63;;;2.27;;
2850;SDS011;1433;49.976;8.342;2023-07-16T12:36:21;2.20;;;1.93;;
2850;SDS011;1433;49.976;8.342;2023-07-16T12:38:47;3.43;;;2.70;;
2850;SDS011;1433;49.976;8.342;2023-07-16T12:41:13;3.50;;;2.60;;
2850;SDS011;1433;49.976;8.342;2023-07-16T12:43:40;2.93;;;2.60;;
2850;SDS011;1433;49.976;8.342;2023-07-16T12:46:07;3.40;;;3.10;;
2850;SDS011;1433;49.976;8.342;2023-07-16T12:48:33;2.50;;;2.30;;
2850;SDS011;1433;49.976;8.342;2023-07-16T12:50:59;3.47;;;2.50;;
2850;SDS011;1433;49.976;8.342;2023-07-16T12:53:26;3.53;;;3.23;;
2850;SDS011;1433;49.976;8.342;2023-07-16T12:55:52;3.83;;;3.10;;
2850;SDS011;1433;49.976;8.342;2023-07-16T12:58:19;4.13;;;3.00;;
2850;SDS011;1433;49.976;8.342;2023-07-16T13:00:45;3.37;;;2.30;;
2850;SDS011;1433;49.976;8.342;2023-07-16T13:03:11;3.47;;;2.17;;
2850;SDS011;1433;49.976;8.342;2023-07-16T13:05:39;3.80;;;2.53;;
2850;SDS011;1433;49.976;8.342;2023-07-16T13:08:06;2.60;;;2.40;;
2850;SDS011;1433;49.976;8.342;2023-07-16T13:10:32;4.87;;;2.47;;
2850;SDS011;1433;49.976;8.342;2023-07-16T13:12:59;3.33;;;2.77;;
2850;SDS011;1433;49.976;8.342;2023-07-16T13:15:25;2.83;;;2.10;;
2850;SDS011;1433;49.976;8.342;2023-07-16T13:17:51;2.50;;;2.30;;
2850;SDS011;1433;49.976;8.342;2023-07-16T13:20:17;2.83;;;2.63;;
2850;SDS011;1433;49.976;8.342;2023-07-16T13:22:45;3.93;;;2.67;;
2850;SDS011;1433;49.976;8.342;2023-07-16T13:25:12;3.80;;;2.90;;
2850;SDS011;1433;49.976;8.342;2023-07-16T13:27:38;2.30;;;2.10;;
2850;SDS011;1433;49.976;8.342;2023-07-16T13:30:04;3.60;;;2.77;;
2850;SDS011;1433;49.976;8.342;2023-07-16T13:32:33;2.53;;;2.33;;
2850;SDS011;1433;49.976;8.342;2023-07-16T13:34:59;4.93;;;2.70;;
2850;SDS011;1433;49.976;8.342;2023-07-16T13:37:25;2.80;;;2.60;;
2850;SDS011;1433;49.976;8.342;2023-07-16T13:39:51;4.10;;;2.63;;
2850;SDS011;1433;49.976;8.342;2023-07-16T13:42:17;2.07;;;1.97;;
2850;SDS011;1433;49.976;8.342;2023-07-16T13:44:43;4.60;;;3.37;;
2850;SDS011;1433;49.976;8.342;2023-07-16T13:47:10;4.00;;;2.90;;
2850;SDS011;1433;49.976;8.342;2023-07-16T13:49:36;3.67;;;2.83;;
2850;SDS011;1433;49.976;8.342;2023-07-16T13:52:02;2.77;;;2.57;;
2850;SDS011;1433;49.976;8.342;2023-07-16T13:54:28;2.90;;;2.30;;
2850;SDS011;1433;49.976;8.342;2023-07-16T13:56:55;3.30;;;2.53;;
2850;SDS011;1433;49.976;8.342;2023-07-16T13:59:21;4.07;;;3.40;;
2850;SDS011;1433;49.976;8.342;2023-07-16T14:01:47;4.80;;;3.80;;
2850;SDS011;1433;49.976;8.342;2023-07-16T14:04:13;4.17;;;3.80;;
2850;SDS011;1433;49.976;8.342;2023-07-16T14:06:39;3.27;;;2.97;;
2850;SDS011;1433;49.976;8.342;2023-07-16T14:09:05;3.00;;;2.80;;
2850;SDS011;1433;49.976;8.342;2023-07-16T14:11:31;3.27;;;2.97;;
2850;SDS011;1433;49.976;8.342;2023-07-16T14:13:57;3.53;;;3.00;;
2850;SDS011;1433;49.976;8.342;2023-07-16T14:16:24;5.23;;;3.90;;
2850;SDS011;1433;49.976;8.342;2023-07-16T14:18:50;10.50;;;3.37;;
2850;SDS011;1433;49.976;8.342;2023-07-16T14:21:18;6.50;;;3.17;;
2850;SDS011;1433;49.976;8.342;2023-07-16T14:23:44;3.10;;;2.23;;
2850;SDS011;1433;49.976;8.342;2023-07-16T14:26:11;2.87;;;2.40;;
2850;SDS011;1433;49.976;8.342;2023-07-16T14:28:38;3.30;;;3.00;;
2850;SDS011;1433;49.976;8.342;2023-07-16T14:31:04;5.37;;;3.53;;
2850;SDS011;1433;49.976;8.342;2023-07-16T14:33:30;2.77;;;2.30;;
2850;SDS011;1433;49.976;8.342;2023-07-16T14:35:57;3.77;;;2.33;;
2850;SDS011;1433;49.976;8.342;2023-07-16T14:38:23;4.73;;;2.90;;
2850;SDS011;1433;49.976;8.342;2023-07-16T14:40:49;4.50;;;3.30;;
2850;SDS011;1433;49.976;8.342;2023-07-16T14:43:18;3.60;;;2.90;;
2850;SDS011;1433;49.976;8.342;2023-07-16T14:45:45;3.90;;;3.43;;
2850;SDS011;1433;49.976;8.342;2023-07-16T14:48:11;4.00;;;3.60;;
2850;SDS011;1433;49.976;8.342;2023-07-16T14:50:37;4.33;;;3.53;;
2850;SDS011;1433;49.976;8.342;2023-07-16T14:53:04;2.90;;;2.50;;
2850;SDS011;1433;49.976;8.342;2023-07-16T14:55:30;4.20;;;3.30;;
2850;SDS011;1433;49.976;8.342;2023-07-16T14:57:57;3.90;;;2.90;;
2850;SDS011;1433;49.976;8.342;2023-07-16T15:00:23;3.97;;;3.30;;
2850;SDS011;1433;49.976;8.342;2023-07-16T15:02:49;3.43;;;2.80;;
2850;SDS011;1433;49.976;8.342;2023-07-16T15:05:16;4.30;;;3.90;;
2850;SDS011;1433;49.976;8.342;2023-07-16T15:07:42;5.60;;;4.00;;
2850;SDS011;1433;49.976;8.342;2023-07-16T15:10:08;6.17;;;2.80;;
2850;SDS011;1433;49.976;8.342;2023-07-16T15:12:35;9.33;;;3.60;;
2850;SDS011;1433;49.976;8.342;2023-07-16T15:15:02;4.57;;;3.50;;
2850;SDS011;1433;49.976;8.342;2023-07-16T15:17:29;5.97;;;3.57;;